首页
METAR-TAF:

METAR-TAF

机场 :

成吉思汗國際機場

乌兰巴托, 蒙古国

纬度: 47-55N, 经度: 106-52E, 海拔: 1306米

当前天气观测

该预报发布于31分钟前的15:00 UTC
风速2节,风向多变
温度 13°C
湿度 77%
气压 1020 hPa
能见度10公里或以上
散云层高于3300英尺

METAR: ZMUB 161500Z VRB01MPS 9999 SCT033 13/09 Q1020 NOSIG RMK QFE657.1 81 NT

时间: 00:31 (15:31 UTC)

预报

该预报发布于4小时和51分钟前的10:40 UTC
预报有效从16日的 12点(UTC)到 17日的 18点(UTC)
风速4节,风向多变
能见度10公里或以上
少量云层高于3000英尺, 积雨云.
散云层高于3300英尺

TAF: ZMUB 161040Z 1612/1718 VRB02MPS 9999 FEW030CB SCT033 TN08/1621Z TX21/1707Z

超过4000个机场的气象观测和天气预报(METAR&TAF报告)。

可查询的气象台以黄色和红色小点在地图上表示。

将鼠标移到小点上方,可查看气象台名称。

然后点击查看天气观测和预报。

如需切换地图:点击带黑十字的绿色按钮放大地图;点击带横线的绿色按钮缩小地图;或者点击绿色箭头查看邻近地区的地图。


METAR-TAF: